Aviation Digital Data Service (ADDS)

Output produced by METARs form (2341 UTC 23 May 2022)
found at http://www.aviationweather.gov/metar/data/
 
TAF FOOL 231700Z 2318/2424 18007KT 9999 SCT012 BKN030 
     TEMPO 2318/2322 BKN008 
     PROB30 
     TEMPO 2400/2407 4000 TSRA BKN010 FEW018CB
       
FOOG 232300Z 14004KT 110V170 9999 SCT010 BKN040 25/21 Q1014
TAF FOOG 231700Z 2318/2418 18011KT 9999 SCT010 BKN030 
     TEMPO 2404/2409 BKN008 OVC026